createdAt,value
2023-01-20T02:47:35.805Z,10.20
2023-01-20T02:58:40.707Z,11.30
2023-01-20T03:09:40.533Z,9.50
2023-01-20T03:20:40.418Z,8.10
2023-01-20T03:31:40.507Z,8.50
2023-01-20T03:42:40.177Z,6.90
2023-01-20T03:53:41.058Z,6.80
2023-01-20T04:04:39.917Z,6.30
2023-01-20T04:15:39.805Z,6.90
2023-01-20T04:26:39.681Z,9.00
2023-01-20T04:37:39.552Z,7.90
2023-01-20T04:48:39.434Z,8.20
2023-01-20T04:59:39.319Z,7.00
2023-01-20T05:10:39.206Z,8.60
2023-01-20T05:21:39.165Z,7.20
2023-01-20T05:32:39.034Z,10.20
2023-01-20T05:43:38.822Z,11.70
2023-01-20T05:54:38.709Z,7.30
2023-01-20T06:05:38.602Z,8.90
2023-01-20T06:16:38.472Z,7.60
2023-01-20T06:27:38.344Z,8.00
2023-01-20T06:38:38.278Z,7.30
2023-01-20T06:49:38.125Z,7.80
2023-01-20T07:00:37.984Z,8.70
2023-01-20T07:11:37.877Z,21.10
2023-01-20T07:22:37.744Z,15.50
2023-01-20T07:33:37.680Z,11.40
2023-01-20T07:44:37.494Z,11.10
2023-01-20T07:55:37.368Z,12.00
2023-01-20T08:06:37.249Z,12.80
2023-01-20T08:17:37.170Z,13.30
2023-01-20T08:28:37.029Z,10.70
2023-01-20T08:39:36.889Z,10.80
2023-01-20T08:50:36.794Z,12.40
2023-01-20T09:01:36.673Z,12.30
2023-01-20T09:12:36.514Z,9.30
2023-01-20T09:23:36.434Z,9.20
2023-01-20T09:34:36.294Z,8.00
2023-01-20T09:45:36.162Z,9.10
2023-01-20T09:56:36.068Z,8.40
2023-01-20T10:07:35.910Z,10.70
2023-01-20T10:18:35.789Z,10.40
2023-01-20T10:29:35.676Z,10.10
2023-01-20T10:40:35.668Z,10.10
2023-01-20T10:51:35.419Z,8.40
2023-01-20T11:02:35.465Z,7.20
2023-01-20T11:13:35.165Z,7.00
2023-01-20T11:24:35.042Z,6.60
2023-01-20T11:35:34.923Z,6.90
2023-01-20T11:46:34.867Z,6.40
2023-01-20T11:57:34.656Z,5.30
2023-01-20T12:08:34.573Z,5.60
2023-01-20T12:19:34.540Z,5.20
2023-01-20T12:30:34.349Z,5.80
2023-01-20T12:41:34.164Z,6.60
2023-01-20T12:52:34.132Z,5.60
2023-01-20T13:03:33.957Z,7.20
2023-01-20T13:14:33.795Z,7.20
2023-01-20T13:25:33.684Z,6.80
2023-01-20T13:36:33.588Z,7.00
2023-01-20T13:47:33.433Z,6.60
2023-01-20T13:58:33.305Z,5.80
2023-01-20T14:09:33.195Z,6.10
2023-01-20T14:20:33.056Z,5.50
2023-01-20T14:31:34.364Z,4.80
2023-01-20T14:42:34.357Z,5.30
2023-01-20T14:53:32.704Z,5.00
2023-01-20T15:04:32.605Z,7.10
2023-01-20T15:15:32.471Z,7.30
2023-01-20T15:26:32.315Z,7.60
2023-01-20T15:37:32.196Z,6.20
2023-01-20T15:48:32.069Z,8.40
2023-01-20T15:59:32.304Z,7.30
2023-01-20T16:10:31.820Z,7.80
2023-01-20T16:21:31.779Z,7.70
2023-01-20T16:32:31.615Z,7.80
2023-01-20T16:43:31.467Z,7.70
2023-01-20T16:54:31.506Z,7.60
2023-01-20T17:05:31.215Z,7.90
2023-01-20T17:16:31.175Z,5.60
2023-01-20T17:27:30.972Z,7.70
2023-01-20T17:38:30.862Z,6.00
2023-01-20T17:49:30.705Z,7.50
2023-01-20T18:00:30.576Z,8.80
2023-01-20T18:11:30.471Z,9.30
2023-01-20T18:22:30.386Z,5.90
2023-01-20T18:33:30.327Z,4.80
2023-01-20T18:44:30.091Z,4.50
2023-01-20T18:55:29.965Z,6.30
2023-01-20T19:06:29.860Z,7.30
2023-01-20T19:17:29.717Z,6.10
2023-01-20T19:28:29.624Z,6.30
2023-01-20T19:39:29.492Z,7.00
2023-01-20T19:50:29.376Z,6.70
2023-01-20T20:01:31.566Z,8.30
2023-01-20T20:12:29.114Z,7.00
2023-01-20T20:23:28.994Z,5.40
2023-01-20T20:34:28.886Z,7.00
2023-01-20T20:45:28.790Z,6.50
2023-01-20T20:56:28.674Z,8.60
2023-01-20T21:07:28.546Z,6.00
2023-01-20T21:18:28.381Z,6.70
2023-01-20T21:29:28.277Z,5.90
2023-01-20T21:40:28.150Z,7.00
2023-01-20T21:51:28.069Z,4.50
